Time;durP1;ratioP1;P1;durP2;ratioP2;P2;SDS_P1;SDS_P2;PMS_P1;PMS_P2;Temp;Humidity;BMP_temperature;BMP_pressure;BME280_temperature;BME280_humidity;BME280_pressure;Samples;Min_cycle;Max_cycle;Signal;HPM_P1;HPM_P2
2022/01/06 00:01:40;;;;;;;9.57;1.30;;;4.40;99.90;;;;;;5091180;28;20097;-70
2022/01/06 00:04:05;;;;;;;10.60;1.50;;;4.30;99.90;;;;;;5102497;28;20472;-70
2022/01/06 00:06:36;;;;;;;11.80;1.60;;;4.30;99.90;;;;;;5138750;27;20027;-70
2022/01/06 00:09:03;;;;;;;10.50;2.05;;;4.30;99.90;;;;;;5129517;27;20031;-70
2022/01/06 00:11:29;;;;;;;13.23;2.17;;;4.20;99.90;;;;;;5111995;28;20475;-70
2022/01/06 00:14:07;;;;;;;8.85;1.60;;;4.30;99.90;;;;;;5136329;27;20076;-70
2022/01/06 00:16:44;;;;;;;13.70;2.20;;;4.20;99.90;;;;;;5129716;27;20044;-70
2022/01/06 00:24:24;;;;;;;12.65;2.03;;;4.20;99.90;;;;;;5125996;27;20048;-70
2022/01/06 00:26:50;;;;;;;12.38;2.20;;;4.10;99.90;;;;;;5109046;28;20062;-70
2022/01/06 00:29:16;;;;;;;10.48;1.70;;;4.10;99.90;;;;;;5105925;28;20036;-70
2022/01/06 00:31:42;;;;;;;14.95;1.73;;;4.00;99.90;;;;;;5126417;28;20036;-70
2022/01/06 00:34:10;;;;;;;13.38;1.85;;;4.00;99.90;;;;;;5112743;28;20119;-70
2022/01/06 00:36:37;;;;;;;12.15;1.88;;;4.00;99.90;;;;;;5111798;28;20145;-70
2022/01/06 00:39:03;;;;;;;11.85;2.35;;;4.00;99.90;;;;;;5109609;28;20127;-70
2022/01/06 00:41:31;;;;;;;13.65;2.60;;;4.00;99.90;;;;;;5111799;28;20032;-70
2022/01/06 00:43:57;;;;;;;9.43;1.73;;;3.90;99.90;;;;;;5109402;28;20043;-70
2022/01/06 00:46:22;;;;;;;9.23;1.67;;;4.00;99.90;;;;;;5095534;28;20591;-70
2022/01/06 00:48:48;;;;;;;12.55;1.90;;;4.00;99.90;;;;;;5108496;28;20128;-70
2022/01/06 00:51:13;;;;;;;11.85;1.95;;;4.00;99.90;;;;;;5074997;28;20040;-70
2022/01/06 00:53:39;;;;;;;11.60;1.83;;;4.00;99.90;;;;;;5096918;28;20039;-70
2022/01/06 00:56:04;;;;;;;8.85;1.58;;;3.90;99.90;;;;;;5129777;27;20036;-70
2022/01/06 00:58:30;;;;;;;9.38;1.60;;;3.90;99.90;;;;;;5095386;28;20036;-70
2022/01/06 01:00:55;;;;;;;11.90;1.50;;;4.00;99.90;;;;;;5107657;27;20027;-70
2022/01/06 01:03:22;;;;;;;6.68;1.38;;;3.90;99.90;;;;;;5150527;27;20090;-70
2022/01/06 01:05:52;;;;;;;10.57;1.67;;;3.90;99.90;;;;;;5113718;27;20127;-70
2022/01/06 01:08:18;;;;;;;10.93;1.40;;;3.90;99.90;;;;;;5116200;28;20043;-70
2022/01/06 01:10:46;;;;;;;11.13;1.35;;;3.80;99.90;;;;;;5115334;28;20039;-70
2022/01/06 01:13:13;;;;;;;9.23;1.48;;;3.80;99.90;;;;;;5112801;28;20040;-70
2022/01/06 01:15:47;;;;;;;8.32;1.33;;;3.90;99.90;;;;;;5101450;28;20114;-70
2022/01/06 01:18:18;;;;;;;9.48;1.88;;;3.80;99.90;;;;;;5098827;28;20039;-70
2022/01/06 01:20:43;;;;;;;9.98;1.48;;;3.80;99.90;;;;;;5095699;28;20043;-70
2022/01/06 01:23:09;;;;;;;8.93;1.25;;;3.70;99.90;;;;;;5103119;27;20039;-70
2022/01/06 01:25:35;;;;;;;14.23;1.92;;;3.70;99.90;;;;;;5080155;28;20124;-70
2022/01/06 01:28:03;;;;;;;8.90;1.58;;;3.70;99.90;;;;;;5115112;28;20047;-70
2022/01/06 01:30:32;;;;;;;12.80;1.65;;;3.70;99.90;;;;;;5098161;28;20127;-70
2022/01/06 01:32:59;;;;;;;11.32;1.67;;;3.70;99.90;;;;;;5115710;28;20035;-70
2022/01/06 01:35:31;;;;;;;10.40;1.27;;;3.70;99.90;;;;;;5114406;28;20047;-70
2022/01/06 01:37:57;;;;;;;9.63;1.95;;;3.70;99.90;;;;;;5098605;28;20434;-70
2022/01/06 01:40:23;;;;;;;6.22;1.08;;;3.60;99.90;;;;;;5113815;28;20044;-70
2022/01/06 01:42:49;;;;;;;12.48;1.85;;;3.60;99.90;;;;;;5115223;28;20506;-70
2022/01/06 01:45:16;;;;;;;10.07;1.67;;;3.60;99.90;;;;;;5084157;28;20055;-70
2022/01/06 01:47:44;;;;;;;10.52;1.83;;;3.60;99.90;;;;;;5094889;28;20050;-70
2022/01/06 01:50:16;;;;;;;8.40;1.50;;;3.60;99.90;;;;;;5107583;28;20449;-70
2022/01/06 01:53:07;;;;;;;7.38;1.38;;;3.60;99.90;;;;;;5096745;28;20032;-70
2022/01/06 01:55:34;;;;;;;9.00;1.33;;;3.60;99.90;;;;;;5093220;28;20521;-70
2022/01/06 01:58:00;;;;;;;14.13;1.92;;;3.60;99.90;;;;;;5115010;28;20096;-70
2022/01/06 02:00:28;;;;;;;9.93;1.75;;;3.60;99.90;;;;;;5133409;27;20039;-70
2022/01/06 02:02:54;;;;;;;12.48;1.48;;;3.60;99.90;;;;;;5094567;28;20040;-70
2022/01/06 02:05:25;;;;;;;7.65;1.58;;;3.60;99.90;;;;;;5088273;28;20040;-70
2022/01/06 02:07:51;;;;;;;7.15;1.33;;;3.60;99.90;;;;;;5115220;28;20395;-70
2022/01/06 02:10:19;;;;;;;7.57;1.10;;;3.50;99.90;;;;;;5100906;28;20491;-70
2022/01/06 02:12:45;;;;;;;10.98;1.40;;;3.50;99.90;;;;;;5093708;28;20091;-70
2022/01/06 02:15:11;;;;;;;9.68;1.33;;;3.60;99.90;;;;;;5096494;28;20040;-70
2022/01/06 02:17:38;;;;;;;11.20;1.95;;;3.50;99.90;;;;;;5097515;28;20043;-70
2022/01/06 02:20:07;;;;;;;9.32;1.50;;;3.50;99.90;;;;;;5101778;28;20036;-70
2022/01/06 02:22:33;;;;;;;12.27;1.73;;;3.50;99.90;;;;;;5094406;28;20040;-70
2022/01/06 02:25:31;;;;;;;9.43;1.95;;;3.50;99.90;;;;;;5093620;28;20035;-70
2022/01/06 02:28:00;;;;;;;7.35;1.60;;;3.60;99.90;;;;;;5107510;28;20047;-70
2022/01/06 02:30:26;;;;;;;8.98;1.45;;;3.60;99.90;;;;;;5114191;28;20050;-70
2022/01/06 02:32:53;;;;;;;7.50;1.63;;;3.60;99.90;;;;;;5102010;28;20134;-70
2022/01/06 02:35:21;;;;;;;8.15;1.65;;;3.60;99.90;;;;;;5093481;28;20092;-70
2022/01/06 02:37:47;;;;;;;10.57;1.88;;;3.50;99.90;;;;;;5097176;28;20036;-70
2022/01/06 02:40:19;;;;;;;9.52;1.85;;;3.50;99.90;;;;;;5076712;28;20048;-70
2022/01/06 02:42:49;;;;;;;13.00;1.92;;;3.40;99.90;;;;;;5101547;28;20035;-70
2022/01/06 02:45:16;;;;;;;6.22;1.00;;;3.50;99.90;;;;;;5093378;28;20113;-70
2022/01/06 02:47:44;;;;;;;13.88;1.70;;;3.60;99.90;;;;;;5099172;28;20046;-70
2022/01/06 02:50:12;;;;;;;10.48;2.22;;;3.60;99.90;;;;;;5096312;28;20423;-70
2022/01/06 02:52:38;;;;;;;12.05;1.60;;;3.60;99.90;;;;;;5087488;28;20036;-70
2022/01/06 02:55:09;;;;;;;14.95;1.67;;;3.60;99.90;;;;;;5080886;28;20126;-70
2022/01/06 02:57:36;;;;;;;14.43;2.13;;;3.60;99.90;;;;;;5112333;28;20505;-70
2022/01/06 03:00:04;;;;;;;10.73;1.65;;;3.60;99.90;;;;;;5109701;28;20036;-70
2022/01/06 03:02:30;;;;;;;10.13;1.77;;;3.60;99.90;;;;;;5083853;28;20040;-70
2022/01/06 03:04:55;;;;;;;10.20;1.38;;;3.50;99.90;;;;;;5091888;28;20502;-70
2022/01/06 03:07:21;;;;;;;10.43;1.50;;;3.50;99.90;;;;;;5113679;28;20081;-70
2022/01/06 03:09:53;;;;;;;9.75;1.30;;;3.50;99.90;;;;;;5079016;28;20036;-70
2022/01/06 03:12:32;;;;;;;10.98;1.50;;;3.50;99.90;;;;;;5089689;28;20047;-70
2022/01/06 03:14:58;;;;;;;11.60;1.90;;;3.50;99.90;;;;;;5127803;27;20044;-70
2022/01/06 03:17:24;;;;;;;8.35;1.77;;;3.50;99.90;;;;;;5092454;28;20040;-70
2022/01/06 03:19:49;;;;;;;12.80;1.92;;;3.40;99.90;;;;;;5076648;28;20036;-70
2022/01/06 03:22:15;;;;;;;7.30;1.27;;;3.40;99.90;;;;;;5145520;27;20394;-70
2022/01/06 03:24:42;;;;;;;13.45;2.80;;;3.40;99.90;;;;;;5109094;28;20114;-70
2022/01/06 03:27:07;;;;;;;10.15;1.48;;;3.40;99.90;;;;;;5109847;28;20036;-70
2022/01/06 03:29:33;;;;;;;8.75;1.63;;;3.40;99.90;;;;;;5109813;27;20165;-70
2022/01/06 03:31:59;;;;;;;10.68;1.80;;;3.40;99.90;;;;;;5076217;28;20093;-70
2022/01/06 03:34:31;;;;;;;12.60;3.05;;;3.30;99.90;;;;;;5088575;28;20046;-70
2022/01/06 03:36:58;;;;;;;10.18;1.60;;;3.30;99.90;;;;;;5112277;27;20040;-70
2022/01/06 03:39:24;;;;;;;8.15;1.33;;;3.30;99.90;;;;;;5111146;27;20370;-70
2022/01/06 03:41:49;;;;;;;12.10;1.92;;;3.30;99.90;;;;;;5094713;28;20051;-70
2022/01/06 03:44:16;;;;;;;12.40;2.20;;;3.30;99.90;;;;;;5126887;27;20032;-70
2022/01/06 03:46:42;;;;;;;8.77;1.95;;;3.30;99.90;;;;;;5093446;28;20059;-70
2022/01/06 03:49:07;;;;;;;8.32;1.30;;;3.30;99.90;;;;;;5112992;28;20066;-70
2022/01/06 03:51:33;;;;;;;14.90;2.20;;;3.30;99.90;;;;;;5118260;27;20534;-70
2022/01/06 03:53:59;;;;;;;10.82;1.80;;;3.30;99.90;;;;;;5109670;28;20040;-70
2022/01/06 03:56:25;;;;;;;7.82;1.83;;;3.30;99.90;;;;;;5075716;28;20044;-70
2022/01/06 03:58:51;;;;;;;11.13;1.60;;;3.20;99.90;;;;;;5109461;28;20481;-70
2022/01/06 04:01:16;;;;;;;9.30;2.00;;;3.20;99.90;;;;;;5075671;28;20036;-70
2022/01/06 04:03:44;;;;;;;6.47;1.20;;;3.20;99.90;;;;;;5092643;28;20500;-70
2022/01/06 04:06:10;;;;;;;11.10;1.70;;;3.20;99.90;;;;;;5082000;28;20039;-70
2022/01/06 04:08:36;;;;;;;10.50;1.60;;;3.20;99.90;;;;;;5147004;27;20509;-70
2022/01/06 04:11:03;;;;;;;12.60;1.70;;;3.10;99.90;;;;;;5090352;28;20032;-70
2022/01/06 04:13:29;;;;;;;11.48;1.75;;;3.10;99.90;;;;;;5111682;28;20483;-70
2022/01/06 04:15:55;;;;;;;13.43;2.17;;;3.20;99.90;;;;;;5077443;28;20085;-70
2022/01/06 04:18:20;;;;;;;11.95;1.80;;;3.10;99.90;;;;;;5092052;28;20071;-70
2022/01/06 04:20:46;;;;;;;9.75;1.48;;;3.10;99.90;;;;;;5096188;28;20126;-70
2022/01/06 04:23:12;;;;;;;10.48;2.60;;;3.10;99.90;;;;;;5129542;27;20041;-70
2022/01/06 04:25:37;;;;;;;8.02;1.50;;;3.10;99.90;;;;;;5094630;28;20404;-70
2022/01/06 04:28:03;;;;;;;12.20;2.05;;;3.10;99.90;;;;;;5146666;27;20039;-70
2022/01/06 04:30:29;;;;;;;8.40;1.33;;;3.10;99.90;;;;;;5094653;28;20039;-70
2022/01/06 04:32:54;;;;;;;7.47;1.73;;;3.10;99.90;;;;;;5090302;28;20040;-70
2022/01/06 04:35:20;;;;;;;11.95;1.80;;;3.10;99.90;;;;;;5132310;27;20047;-70
2022/01/06 04:37:45;;;;;;;6.93;2.00;;;3.10;99.90;;;;;;5104655;28;20090;-70
2022/01/06 04:40:11;;;;;;;7.65;1.85;;;3.10;99.90;;;;;;5092008;28;20032;-70
2022/01/06 04:42:37;;;;;;;10.02;1.65;;;3.10;99.90;;;;;;5130614;27;20053;-70
2022/01/06 04:45:04;;;;;;;8.27;1.23;;;3.10;99.90;;;;;;5102900;28;20043;-70
2022/01/06 04:47:29;;;;;;;9.65;1.92;;;3.00;99.90;;;;;;5095266;28;20043;-70
2022/01/06 04:49:55;;;;;;;9.25;2.13;;;3.00;99.90;;;;;;5145742;27;20043;-70
2022/01/06 04:52:20;;;;;;;8.82;1.73;;;3.00;99.90;;;;;;5091750;28;20519;-70
2022/01/06 04:54:46;;;;;;;7.25;1.63;;;3.00;99.90;;;;;;5091708;28;20048;-71
2022/01/06 04:57:11;;;;;;;7.70;1.40;;;3.00;99.90;;;;;;5093182;28;20086;-70
2022/01/06 04:59:37;;;;;;;10.38;1.75;;;2.90;99.90;;;;;;5146417;27;20518;-70
2022/01/06 05:02:04;;;;;;;10.95;2.47;;;2.90;99.90;;;;;;5111636;28;20057;-70
2022/01/06 05:04:29;;;;;;;8.55;1.98;;;2.90;99.90;;;;;;5090877;28;20032;-70
2022/01/06 05:06:55;;;;;;;6.68;1.20;;;2.90;99.90;;;;;;5111603;28;20043;-70
2022/01/06 05:09:20;;;;;;;6.45;1.10;;;2.80;99.90;;;;;;5109430;28;20048;-70
2022/01/06 05:11:46;;;;;;;9.90;1.35;;;2.80;99.90;;;;;;5091812;28;20396;-70
2022/01/06 05:14:12;;;;;;;9.63;1.70;;;2.80;99.90;;;;;;5108749;28;20099;-71
2022/01/06 05:16:37;;;;;;;7.22;1.10;;;2.70;99.90;;;;;;5091817;28;20067;-70
2022/01/06 05:19:03;;;;;;;8.70;2.15;;;2.70;99.90;;;;;;5091368;28;20047;-70
2022/01/06 05:21:30;;;;;;;8.45;1.15;;;2.60;99.90;;;;;;5080022;28;20412;-70
2022/01/06 05:23:56;;;;;;;10.13;1.70;;;2.60;99.90;;;;;;5091850;28;20059;-70
2022/01/06 05:26:22;;;;;;;6.88;1.25;;;2.60;99.90;;;;;;5125618;27;20041;-70
2022/01/06 05:28:48;;;;;;;6.75;1.17;;;2.50;99.90;;;;;;5098782;28;20070;-70
2022/01/06 05:31:13;;;;;;;6.82;1.25;;;2.50;99.90;;;;;;5111904;28;20035;-70
2022/01/06 05:33:39;;;;;;;9.55;1.83;;;2.40;99.90;;;;;;5092965;28;20035;-70
2022/01/06 05:36:05;;;;;;;7.35;1.77;;;2.40;99.90;;;;;;5144977;27;20043;-70
2022/01/06 05:38:30;;;;;;;8.77;1.10;;;2.40;99.90;;;;;;5107832;28;20481;-70
2022/01/06 05:40:56;;;;;;;7.25;1.60;;;2.30;99.90;;;;;;5097354;28;20031;-70
2022/01/06 05:43:23;;;;;;;6.95;1.30;;;2.30;99.90;;;;;;5148171;27;20050;-70
2022/01/06 05:45:54;;;;;;;6.00;1.45;;;2.40;99.90;;;;;;5112795;28;20123;-70
2022/01/06 05:48:20;;;;;;;8.35;1.45;;;2.40;99.90;;;;;;5114426;28;20040;-70
2022/01/06 05:50:49;;;;;;;10.45;1.33;;;2.30;99.90;;;;;;5098433;28;20571;-70
2022/01/06 05:53:16;;;;;;;7.35;1.40;;;2.30;99.90;;;;;;5130456;27;20085;-70
2022/01/06 05:55:41;;;;;;;9.45;1.50;;;2.10;99.90;;;;;;5094659;28;20040;-70
2022/01/06 05:58:07;;;;;;;6.85;1.40;;;2.10;99.90;;;;;;5091020;28;20043;-70
2022/01/06 06:00:33;;;;;;;9.18;1.40;;;2.10;99.90;;;;;;5125159;27;20039;-70
2022/01/06 06:02:58;;;;;;;8.23;1.30;;;2.10;99.90;;;;;;5095539;28;20047;-70
2022/01/06 06:05:24;;;;;;;8.50;1.30;;;2.20;99.90;;;;;;5149226;27;20047;-70
2022/01/06 06:07:50;;;;;;;9.27;1.73;;;2.20;99.90;;;;;;5114739;28;20050;-70
2022/01/06 06:10:16;;;;;;;9.40;1.33;;;2.10;99.90;;;;;;5094316;28;20047;-70
2022/01/06 06:12:41;;;;;;;9.48;1.27;;;2.10;99.90;;;;;;5112477;27;20040;-70
2022/01/06 06:15:07;;;;;;;7.63;1.13;;;1.90;99.90;;;;;;5077459;28;20067;-70
2022/01/06 06:17:33;;;;;;;6.75;0.90;;;1.90;99.90;;;;;;5094165;28;20043;-70
2022/01/06 06:19:58;;;;;;;6.72;1.40;;;2.00;99.90;;;;;;5111458;28;20032;-70
2022/01/06 06:22:24;;;;;;;13.73;2.28;;;1.90;99.90;;;;;;5128789;27;20032;-70
2022/01/06 06:24:50;;;;;;;6.93;1.30;;;2.00;99.90;;;;;;5111214;28;20032;-70
2022/01/06 06:27:15;;;;;;;9.18;1.15;;;2.00;99.90;;;;;;5111447;27;20076;-70
2022/01/06 06:29:41;;;;;;;8.05;1.20;;;2.00;99.90;;;;;;5094441;28;20043;-70
2022/01/06 06:32:06;;;;;;;7.00;1.35;;;2.00;99.90;;;;;;5128233;27;20500;-70
2022/01/06 06:34:32;;;;;;;6.55;1.35;;;2.00;99.90;;;;;;5094058;28;20142;-70
2022/01/06 06:36:58;;;;;;;4.32;0.80;;;2.00;99.90;;;;;;5111034;28;20040;-70
2022/01/06 06:39:23;;;;;;;6.47;1.15;;;2.00;99.90;;;;;;5111125;27;20028;-70
2022/01/06 06:41:49;;;;;;;7.75;1.27;;;2.00;99.90;;;;;;5086780;28;20073;-70
2022/01/06 06:44:14;;;;;;;9.10;1.80;;;2.00;99.90;;;;;;5096134;28;20044;-70
2022/01/06 06:46:40;;;;;;;6.78;1.10;;;2.00;99.90;;;;;;5096142;28;20052;-69
2022/01/06 06:49:05;;;;;;;9.80;1.08;;;2.00;99.90;;;;;;5097387;28;20139;-70
2022/01/06 06:51:31;;;;;;;8.98;1.67;;;1.90;99.90;;;;;;5139504;27;20036;-70
2022/01/06 06:53:57;;;;;;;13.95;1.95;;;1.90;99.90;;;;;;5076812;28;20036;-70
2022/01/06 06:56:22;;;;;;;6.60;1.30;;;1.90;99.90;;;;;;5076839;28;20094;-70
2022/01/06 06:58:48;;;;;;;7.10;1.30;;;1.80;99.90;;;;;;5127608;27;20119;-69
2022/01/06 07:01:14;;;;;;;8.82;1.35;;;1.80;99.90;;;;;;5097207;28;20038;-69
2022/01/06 07:03:39;;;;;;;8.32;1.45;;;1.80;99.90;;;;;;5113102;28;20039;-70
2022/01/06 07:06:05;;;;;;;9.48;1.30;;;1.80;99.90;;;;;;5095662;28;20039;-69
2022/01/06 07:08:31;;;;;;;6.70;1.23;;;1.90;99.90;;;;;;5082887;28;20040;-69
2022/01/06 07:10:56;;;;;;;8.23;1.63;;;1.90;99.90;;;;;;5111681;27;20504;-69
2022/01/06 07:13:22;;;;;;;10.77;1.40;;;1.90;99.90;;;;;;5137165;27;20047;-69
2022/01/06 07:15:47;;;;;;;9.98;2.05;;;2.00;99.90;;;;;;5108159;28;20027;-70
2022/01/06 07:18:13;;;;;;;8.38;1.75;;;1.90;99.90;;;;;;5111924;28;20035;-70
2022/01/06 07:20:39;;;;;;;9.30;1.67;;;1.90;99.90;;;;;;5106871;28;20074;-69
2022/01/06 07:23:04;;;;;;;8.60;1.23;;;1.90;99.90;;;;;;5107173;28;20036;-70
2022/01/06 07:25:30;;;;;;;12.30;1.60;;;1.90;99.90;;;;;;5112217;28;20027;-69
2022/01/06 07:27:56;;;;;;;8.82;1.98;;;1.90;99.90;;;;;;5112493;28;20484;-70
2022/01/06 07:30:22;;;;;;;8.57;1.30;;;1.90;99.90;;;;;;5108850;27;20119;-69
2022/01/06 07:32:50;;;;;;;6.45;2.28;;;1.80;99.90;;;;;;5090114;28;20036;-69
2022/01/06 07:35:19;;;;;;;16.35;2.03;;;1.80;99.90;;;;;;5115521;27;20499;-69
2022/01/06 07:37:46;;;;;;;12.52;1.80;;;1.80;99.90;;;;;;5095099;28;20062;-69
2022/01/06 07:40:12;;;;;;;9.82;2.15;;;1.80;99.90;;;;;;5111914;28;20039;-69
2022/01/06 07:42:38;;;;;;;9.70;1.90;;;1.90;99.90;;;;;;5119540;27;20039;-70
2022/01/06 07:45:04;;;;;;;10.70;2.25;;;1.80;99.90;;;;;;5099518;27;20055;-69
2022/01/06 07:47:32;;;;;;;8.50;1.50;;;1.80;99.90;;;;;;5112314;27;20070;-70
2022/01/06 07:49:59;;;;;;;7.65;1.70;;;1.80;99.90;;;;;;5094949;28;20043;-69
2022/01/06 07:52:25;;;;;;;7.35;1.25;;;1.70;99.90;;;;;;5097875;27;20070;-69
2022/01/06 07:54:50;;;;;;;10.10;2.15;;;1.70;99.90;;;;;;5107352;28;20032;-69
2022/01/06 07:57:16;;;;;;;11.43;1.65;;;1.70;99.90;;;;;;5126441;27;20150;-69
2022/01/06 07:59:42;;;;;;;10.48;1.50;;;1.80;99.90;;;;;;5098087;27;20035;-69
2022/01/06 08:02:08;;;;;;;10.32;1.83;;;1.70;99.90;;;;;;5096903;27;20039;-69
2022/01/06 08:04:34;;;;;;;9.50;1.60;;;1.70;99.90;;;;;;5111085;27;20543;-69
2022/01/06 08:07:00;;;;;;;9.27;2.10;;;1.70;99.90;;;;;;5080925;28;20040;-69
2022/01/06 08:09:26;;;;;;;9.25;1.45;;;1.70;99.90;;;;;;5107019;27;20047;-69
2022/01/06 08:11:51;;;;;;;9.40;1.73;;;1.80;99.90;;;;;;5111142;27;20496;-69
2022/01/06 08:14:18;;;;;;;11.65;1.60;;;1.70;99.90;;;;;;5076139;28;20495;-69
2022/01/06 08:16:43;;;;;;;8.95;1.65;;;1.70;99.90;;;;;;5112531;27;20036;-69
2022/01/06 08:19:09;;;;;;;5.57;1.75;;;1.70;99.90;;;;;;5080785;28;20042;-69
2022/01/06 08:21:34;;;;;;;7.90;1.70;;;1.70;99.90;;;;;;5080005;28;20105;-69
2022/01/06 08:24:00;;;;;;;16.63;2.35;;;1.60;99.90;;;;;;5125934;27;20036;-69
2022/01/06 08:26:25;;;;;;;8.70;1.58;;;1.50;99.90;;;;;;5096028;28;20054;-69
2022/01/06 08:28:51;;;;;;;11.85;1.70;;;1.50;99.90;;;;;;5097345;27;20043;-69
2022/01/06 08:31:17;;;;;;;10.38;1.92;;;1.50;99.90;;;;;;5131670;27;20102;-69
2022/01/06 08:33:43;;;;;;;7.93;1.70;;;1.50;99.90;;;;;;5102225;28;20368;-69
2022/01/06 08:36:09;;;;;;;9.80;2.03;;;1.50;99.90;;;;;;5110398;27;20039;-69
2022/01/06 08:38:34;;;;;;;7.57;1.65;;;1.60;99.90;;;;;;5126887;27;20501;-69
2022/01/06 08:41:00;;;;;;;9.73;1.60;;;1.50;99.90;;;;;;5094581;28;20059;-69
2022/01/06 08:43:27;;;;;;;10.90;2.47;;;1.50;99.90;;;;;;5104330;28;20439;-69
2022/01/06 08:45:57;;;;;;;12.32;2.10;;;1.60;99.90;;;;;;5114740;28;20056;-69
2022/01/06 08:48:27;;;;;;;12.15;2.20;;;1.60;99.90;;;;;;5103161;28;20084;-69
2022/01/06 08:50:53;;;;;;;9.07;2.20;;;1.60;99.90;;;;;;5113643;28;20047;-69
2022/01/06 08:53:19;;;;;;;10.65;2.95;;;1.70;99.90;;;;;;5090885;28;20039;-69
2022/01/06 08:55:47;;;;;;;10.25;2.53;;;1.70;99.90;;;;;;5108540;28;20043;-69
2022/01/06 08:58:14;;;;;;;11.73;2.72;;;1.70;99.90;;;;;;5087777;28;20126;-69
2022/01/06 09:00:40;;;;;;;13.07;4.25;;;1.70;99.90;;;;;;5095932;28;20119;-69
2022/01/06 09:03:07;;;;;;;11.57;2.53;;;1.70;99.90;;;;;;5113088;28;20536;-69
2022/01/06 09:05:36;;;;;;;9.93;2.00;;;1.80;99.90;;;;;;5110922;28;20040;-73
2022/01/06 09:08:03;;;;;;;9.07;2.40;;;1.70;99.90;;;;;;5130056;27;20058;-69
2022/01/06 09:10:31;;;;;;;9.00;2.00;;;1.80;99.90;;;;;;5088675;28;20480;-69
2022/01/06 09:12:57;;;;;;;9.32;2.15;;;1.90;99.90;;;;;;5130659;27;20048;-69
2022/01/06 09:15:23;;;;;;;10.70;2.10;;;1.90;99.90;;;;;;5085584;28;20100;-69
2022/01/06 09:17:49;;;;;;;15.18;2.50;;;1.90;99.90;;;;;;5112981;27;20027;-69
2022/01/06 09:20:15;;;;;;;13.18;2.67;;;2.00;99.90;;;;;;5117120;27;20076;-69
2022/01/06 09:22:42;;;;;;;11.95;2.40;;;2.10;99.90;;;;;;5143270;27;20093;-69
2022/01/06 09:25:08;;;;;;;12.30;2.47;;;2.20;99.90;;;;;;5103930;27;20441;-69
2022/01/06 09:27:33;;;;;;;15.45;2.45;;;2.20;99.90;;;;;;5104968;28;20044;-69
2022/01/06 09:29:59;;;;;;;10.40;1.95;;;2.00;99.90;;;;;;5127853;27;20048;-69
2022/01/06 09:32:25;;;;;;;13.57;3.00;;;1.90;99.90;;;;;;5115413;27;20039;-69
2022/01/06 09:34:51;;;;;;;14.13;2.17;;;1.90;99.90;;;;;;5092650;28;20039;-69
2022/01/06 09:37:18;;;;;;;9.95;2.22;;;2.00;99.90;;;;;;5140924;27;20105;-69
2022/01/06 09:39:45;;;;;;;16.48;3.35;;;1.90;99.90;;;;;;5110574;28;20496;-69
2022/01/06 09:42:12;;;;;;;11.35;2.30;;;1.90;99.90;;;;;;5095916;28;20369;-69
2022/01/06 09:44:39;;;;;;;9.23;2.17;;;2.00;99.90;;;;;;5097235;28;20555;-69
2022/01/06 09:47:08;;;;;;;15.10;3.10;;;2.00;99.90;;;;;;5094014;28;20043;-69
2022/01/06 09:49:37;;;;;;;9.93;2.03;;;2.00;99.90;;;;;;5100085;28;20036;-69
2022/01/06 09:52:05;;;;;;;14.00;3.80;;;2.00;99.90;;;;;;5113614;27;20039;-69
2022/01/06 09:54:33;;;;;;;10.05;2.42;;;2.10;99.90;;;;;;5112213;27;20036;-69
2022/01/06 09:56:59;;;;;;;12.68;2.50;;;2.20;99.90;;;;;;5108320;27;20042;-69
2022/01/06 09:59:25;;;;;;;8.77;2.42;;;2.20;99.90;;;;;;5096333;27;20043;-69
2022/01/06 10:01:50;;;;;;;12.00;2.35;;;2.20;99.90;;;;;;5112956;27;20038;-69
2022/01/06 10:04:24;;;;;;;11.73;3.20;;;2.30;99.90;;;;;;5105540;27;20035;-69
2022/01/06 10:07:08;;;;;;;13.18;2.08;;;2.40;99.90;;;;;;5097450;28;20506;-69
2022/01/06 10:09:36;;;;;;;9.90;2.03;;;2.50;99.90;;;;;;5113019;28;20046;-69
2022/01/06 10:12:08;;;;;;;12.32;2.65;;;2.70;99.90;;;;;;5111501;28;20028;-69
2022/01/06 10:14:41;;;;;;;8.45;2.05;;;2.80;99.90;;;;;;5136705;27;20071;-69
2022/01/06 10:17:07;;;;;;;14.15;2.55;;;2.90;99.90;;;;;;5105466;28;20039;-69
2022/01/06 10:19:40;;;;;;;15.65;3.08;;;2.90;99.90;;;;;;5109535;28;20546;-69
2022/01/06 10:22:12;;;;;;;13.88;2.58;;;3.00;99.90;;;;;;5109408;27;20062;-69
2022/01/06 10:24:38;;;;;;;10.85;2.47;;;3.10;99.90;;;;;;5105711;27;20109;-69
2022/01/06 10:27:06;;;;;;;17.60;2.65;;;3.30;99.90;;;;;;5136695;27;20070;-69
2022/01/06 10:29:36;;;;;;;18.20;3.25;;;3.30;99.90;;;;;;5083604;28;20105;-69
2022/01/06 10:32:14;;;;;;;16.92;3.78;;;3.50;99.90;;;;;;5129729;27;20031;-69
2022/01/06 10:34:54;;;;;;;12.95;2.78;;;3.70;99.90;;;;;;5103942;28;20031;-70
2022/01/06 10:37:27;;;;;;;14.98;2.88;;;3.80;99.90;;;;;;5107237;28;20043;-70
2022/01/06 10:39:57;;;;;;;20.88;3.78;;;3.90;99.90;;;;;;5092996;28;20032;-70
2022/01/06 10:42:28;;;;;;;18.42;3.17;;;4.00;99.90;;;;;;5092572;28;20044;-70
2022/01/06 10:44:58;;;;;;;13.00;3.13;;;4.10;99.90;;;;;;5107865;28;20039;-70
2022/01/06 10:47:41;;;;;;;11.65;2.22;;;4.20;99.90;;;;;;5102228;28;20051;-70
2022/01/06 10:50:17;;;;;;;14.18;2.83;;;4.30;99.90;;;;;;5103686;28;20153;-70
2022/01/06 10:52:48;;;;;;;12.55;2.40;;;4.30;99.90;;;;;;5082747;27;20044;-70
2022/01/06 10:55:17;;;;;;;14.50;2.92;;;4.40;99.90;;;;;;5112359;27;20055;-70
2022/01/06 10:57:56;;;;;;;12.70;3.03;;;4.50;99.90;;;;;;5121870;27;20043;-70
2022/01/06 11:00:25;;;;;;;15.85;3.03;;;4.70;99.90;;;;;;5113427;27;20446;-70
2022/01/06 11:02:50;;;;;;;14.27;3.10;;;4.90;99.90;;;;;;5109494;28;20074;-70
2022/01/06 11:05:16;;;;;;;13.88;3.30;;;5.20;99.90;;;;;;5146998;27;20031;-70
2022/01/06 11:07:42;;;;;;;13.77;2.25;;;5.30;99.90;;;;;;5094125;28;20040;-70
2022/01/06 11:10:15;;;;;;;14.48;2.83;;;5.40;99.90;;;;;;5112620;28;20088;-70
2022/01/06 11:12:41;;;;;;;11.25;2.40;;;5.60;99.90;;;;;;5110150;28;20484;-69
2022/01/06 11:15:08;;;;;;;15.52;2.72;;;5.60;99.90;;;;;;5117798;27;20096;-70
2022/01/06 11:17:34;;;;;;;13.50;2.03;;;5.70;99.90;;;;;;5108170;27;20130;-70
2022/01/06 11:20:00;;;;;;;13.65;2.78;;;5.80;99.90;;;;;;5100997;27;20403;-70
2022/01/06 11:22:26;;;;;;;12.05;2.22;;;5.70;99.90;;;;;;5116260;27;20031;-69
2022/01/06 11:24:54;;;;;;;17.05;2.58;;;5.80;99.90;;;;;;5127010;27;20053;-70
2022/01/06 11:27:36;;;;;;;13.00;2.50;;;5.70;99.90;;;;;;5090485;28;20497;-70
2022/01/06 11:30:13;;;;;;;14.63;3.10;;;5.70;99.90;;;;;;5094214;28;20400;-70
2022/01/06 11:32:41;;;;;;;16.25;3.05;;;5.70;99.90;;;;;;5119219;27;20035;-70
2022/01/06 11:35:11;;;;;;;11.73;2.35;;;5.70;99.90;;;;;;5109659;27;20040;-70
2022/01/06 11:37:52;;;;;;;17.55;2.95;;;5.80;99.90;;;;;;5094796;28;20074;-70
2022/01/06 11:40:35;;;;;;;17.95;3.40;;;5.80;99.90;;;;;;5123357;27;20476;-70
2022/01/06 11:43:01;;;;;;;13.02;2.85;;;5.80;99.90;;;;;;5081236;28;20047;-70
2022/01/06 11:45:26;;;;;;;10.65;2.50;;;5.70;99.90;;;;;;5109691;27;20028;-69
2022/01/06 11:48:19;;;;;;;11.80;2.65;;;5.70;99.90;;;;;;5100850;28;20094;-70
2022/01/06 11:50:47;;;;;;;14.57;2.88;;;5.80;99.90;;;;;;5077039;28;20039;-70
2022/01/06 11:53:13;;;;;;;12.68;2.55;;;5.80;99.90;;;;;;5090635;27;20126;-70
2022/01/06 11:55:42;;;;;;;13.80;2.22;;;5.80;99.90;;;;;;5091532;28;20032;-70
2022/01/06 11:58:22;;;;;;;13.32;2.72;;;5.70;99.90;;;;;;5105430;27;20051;-70
2022/01/06 12:01:07;;;;;;;17.17;2.13;;;5.70;99.90;;;;;;5107691;27;20391;-70
2022/01/06 12:03:40;;;;;;;12.30;2.20;;;5.70;99.90;;;;;;5100166;27;20032;-70
2022/01/06 12:06:08;;;;;;;15.00;3.10;;;5.70;99.90;;;;;;5145397;27;20063;-70
2022/01/06 12:08:42;;;;;;;12.95;2.53;;;5.70;99.90;;;;;;5110065;28;20047;-70
2022/01/06 12:11:24;;;;;;;21.63;2.58;;;5.70;99.90;;;;;;5103682;28;20128;-70
2022/01/06 12:13:51;;;;;;;;;;;5.70;99.90;;;;;;5080160;28;20086;-70
2022/01/06 12:16:43;;;;;;;14.75;2.10;;;5.60;99.90;;;;;;5098332;28;19920;-70
2022/01/06 12:19:20;;;;;;;16.33;2.97;;;5.70;99.90;;;;;;5110198;27;20078;-70
2022/01/06 12:21:47;;;;;;;12.95;2.25;;;5.70;99.90;;;;;;5092982;28;20119;-70
2022/01/06 12:24:14;;;;;;;11.68;2.03;;;5.80;99.90;;;;;;5109181;28;20028;-70
2022/01/06 12:26:40;;;;;;;10.32;1.95;;;5.90;99.90;;;;;;5111197;28;20034;-70
2022/01/06 12:29:19;;;;;;;12.15;2.63;;;6.00;99.90;;;;;;5103191;28;20073;-70
2022/01/06 12:31:46;;;;;;;17.40;2.45;;;6.20;99.90;;;;;;5099939;28;20064;-72
2022/01/06 12:34:14;;;;;;;15.57;1.80;;;6.10;99.90;;;;;;5094700;28;20112;-72
2022/01/06 12:36:44;;;;;;;13.93;2.42;;;6.20;99.90;;;;;;5111322;28;20032;-72
2022/01/06 12:39:15;;;;;;;13.63;1.90;;;6.20;99.90;;;;;;5091972;28;20050;-72
2022/01/06 12:41:41;;;;;;;14.35;2.10;;;6.10;99.90;;;;;;5110576;28;20115;-72
2022/01/06 12:44:08;;;;;;;14.68;2.35;;;6.10;99.90;;;;;;5092737;28;20047;-73
2022/01/06 12:46:41;;;;;;;13.45;2.85;;;6.20;99.90;;;;;;5111520;28;20426;-73
2022/01/06 12:49:08;;;;;;;13.02;2.40;;;6.00;99.90;;;;;;5095412;28;20036;-73
2022/01/06 12:51:37;;;;;;;14.35;2.92;;;6.00;99.90;;;;;;5090500;28;20027;-73
2022/01/06 12:54:15;;;;;;;11.55;1.85;;;6.10;99.90;;;;;;5091202;28;20043;-73
2022/01/06 12:56:44;;;;;;;13.60;2.05;;;6.00;99.90;;;;;;5094746;28;20043;-73
2022/01/06 12:59:34;;;;;;;12.98;1.98;;;6.10;99.90;;;;;;5112922;27;20040;-73